Time;durP1;ratioP1;P1;durP2;ratioP2;P2;SDS_P1;SDS_P2;PMS_P1;PMS_P2;Temp;Humidity;BMP_temperature;BMP_pressure;BME280_temperature;BME280_humidity;BME280_pressure;Samples;Min_cycle;Max_cycle;Signal;HPM_P1;HPM_P2
2023/12/06 00:01:59;;;;;;;42.25;27.10;;;4.60;99.90;;;;;;4976349;28;20054;-71
2023/12/06 00:04:24;;;;;;;43.78;28.05;;;4.60;99.90;;;;;;4977424;28;20027;-71
2023/12/06 00:06:50;;;;;;;44.55;28.77;;;4.50;99.90;;;;;;4977211;28;20031;-72
2023/12/06 00:09:16;;;;;;;44.92;28.77;;;4.50;99.90;;;;;;4977425;28;20031;-71
2023/12/06 00:11:41;;;;;;;42.58;27.88;;;4.50;99.90;;;;;;4977129;28;20451;-72
2023/12/06 00:14:07;;;;;;;41.97;26.92;;;4.50;99.90;;;;;;4976945;28;20042;-72
2023/12/06 00:16:32;;;;;;;40.80;26.70;;;4.50;99.90;;;;;;4977311;28;20034;-72
2023/12/06 00:18:58;;;;;;;39.30;25.77;;;4.60;99.90;;;;;;4977297;28;20059;-72
2023/12/06 00:21:24;;;;;;;40.67;26.00;;;4.60;99.90;;;;;;4977546;28;20443;-71
2023/12/06 00:23:49;;;;;;;36.88;24.92;;;4.60;99.90;;;;;;4976811;28;20031;-72
2023/12/06 00:26:15;;;;;;;38.42;25.55;;;4.70;99.90;;;;;;4943730;28;20039;-72
2023/12/06 00:28:41;;;;;;;40.22;25.65;;;4.70;99.90;;;;;;4976655;28;20035;-72
2023/12/06 00:31:06;;;;;;;37.83;24.85;;;4.80;99.90;;;;;;4977361;28;20031;-72
2023/12/06 00:33:32;;;;;;;39.63;26.50;;;4.80;99.90;;;;;;4976686;28;20035;-72
2023/12/06 00:35:58;;;;;;;39.83;26.02;;;4.70;99.90;;;;;;4959408;28;20029;-72
2023/12/06 00:38:23;;;;;;;38.17;25.30;;;4.70;99.90;;;;;;4976275;28;20034;-72
2023/12/06 00:40:49;;;;;;;36.75;25.38;;;4.70;99.90;;;;;;4975591;28;20027;-71
2023/12/06 00:43:15;;;;;;;36.08;25.17;;;4.70;99.90;;;;;;4974785;28;20060;-72
2023/12/06 00:45:40;;;;;;;37.90;24.50;;;4.70;99.90;;;;;;4975318;28;20061;-71
2023/12/06 00:48:06;;;;;;;37.42;26.08;;;4.70;99.90;;;;;;4976831;28;20039;-72
2023/12/06 00:50:31;;;;;;;36.75;25.48;;;4.80;99.90;;;;;;4975863;28;20033;-72
2023/12/06 00:52:57;;;;;;;36.38;24.30;;;4.80;99.90;;;;;;4974993;28;20022;-71
2023/12/06 00:55:23;;;;;;;35.95;24.98;;;4.80;99.90;;;;;;4975189;28;20023;-72
2023/12/06 00:57:48;;;;;;;37.47;25.95;;;4.80;99.90;;;;;;4975494;28;20027;-72
2023/12/06 01:00:15;;;;;;;38.75;26.80;;;4.70;99.90;;;;;;4976593;28;20103;-72
2023/12/06 01:02:40;;;;;;;38.47;25.45;;;4.70;99.90;;;;;;4976277;28;20085;-72
2023/12/06 01:05:06;;;;;;;39.15;26.42;;;4.60;99.90;;;;;;4976063;28;20034;-72
2023/12/06 01:07:32;;;;;;;37.53;25.73;;;4.70;99.90;;;;;;4975978;28;20023;-72
2023/12/06 01:09:58;;;;;;;35.42;25.30;;;4.70;99.90;;;;;;4976326;28;20027;-71
2023/12/06 01:12:23;;;;;;;37.70;25.88;;;4.70;99.90;;;;;;4976323;28;20022;-71
2023/12/06 01:14:49;;;;;;;38.92;25.45;;;4.70;99.90;;;;;;4974368;28;20042;-71
2023/12/06 01:17:15;;;;;;;40.20;26.85;;;4.60;99.90;;;;;;4975975;28;20033;-72
2023/12/06 01:19:40;;;;;;;39.83;27.05;;;4.60;99.90;;;;;;4976191;28;20023;-71
2023/12/06 01:22:06;;;;;;;38.70;26.48;;;4.60;99.90;;;;;;4974643;28;20105;-71
2023/12/06 01:24:32;;;;;;;39.25;26.75;;;4.60;99.90;;;;;;4974917;28;20057;-71
2023/12/06 01:26:57;;;;;;;40.53;27.55;;;4.60;99.90;;;;;;4975491;28;20031;-71
2023/12/06 01:29:23;;;;;;;41.58;27.05;;;4.60;99.90;;;;;;4958471;28;20054;-71
2023/12/06 01:31:48;;;;;;;47.53;29.58;;;4.60;99.90;;;;;;4975624;28;20027;-71
2023/12/06 01:34:14;;;;;;;42.67;28.10;;;4.50;99.90;;;;;;4975685;28;20076;-71
2023/12/06 01:36:40;;;;;;;44.70;28.80;;;4.50;99.90;;;;;;4975771;28;20074;-71
2023/12/06 01:39:05;;;;;;;42.10;28.38;;;4.50;99.90;;;;;;4975534;28;20031;-71
2023/12/06 01:41:31;;;;;;;41.60;27.48;;;4.50;99.90;;;;;;4975671;28;20038;-71
2023/12/06 01:43:57;;;;;;;42.97;27.42;;;4.50;99.90;;;;;;4973945;28;20045;-71
2023/12/06 01:46:22;;;;;;;41.10;27.77;;;4.60;99.90;;;;;;4975213;28;20061;-71
2023/12/06 01:48:49;;;;;;;41.20;27.80;;;4.70;99.90;;;;;;4974459;28;20066;-71
2023/12/06 01:51:17;;;;;;;46.20;29.83;;;4.70;99.90;;;;;;4975560;28;20027;-71
2023/12/06 01:53:43;;;;;;;40.72;27.42;;;4.70;99.90;;;;;;4975279;28;20100;-71
2023/12/06 01:56:10;;;;;;;44.67;28.67;;;4.70;99.90;;;;;;4975246;28;20029;-71
2023/12/06 01:58:37;;;;;;;44.97;28.55;;;4.70;99.90;;;;;;4973764;28;20030;-70
2023/12/06 02:01:05;;;;;;;42.08;28.25;;;4.70;99.90;;;;;;4974584;28;20379;-70
2023/12/06 02:03:32;;;;;;;41.83;28.20;;;4.70;99.90;;;;;;4974962;28;20036;-71
2023/12/06 02:05:59;;;;;;;44.05;29.42;;;4.80;99.90;;;;;;4975069;28;20101;-70
2023/12/06 02:08:25;;;;;;;42.00;27.38;;;4.80;99.90;;;;;;4975270;28;20034;-70
2023/12/06 02:10:50;;;;;;;42.65;27.58;;;4.80;99.90;;;;;;4975332;28;20027;-70
2023/12/06 02:13:17;;;;;;;40.60;27.35;;;4.90;99.90;;;;;;4974358;28;20399;-71
2023/12/06 02:15:42;;;;;;;45.42;29.65;;;4.90;99.90;;;;;;4973976;28;20371;-71
2023/12/06 02:18:08;;;;;;;43.47;28.33;;;4.90;99.90;;;;;;4975355;28;20023;-70
2023/12/06 02:20:34;;;;;;;45.10;29.02;;;4.90;99.90;;;;;;4975207;28;20114;-70
2023/12/06 02:23:01;;;;;;;43.15;28.23;;;4.90;99.90;;;;;;4974882;28;20454;-70
2023/12/06 02:25:27;;;;;;;42.10;27.77;;;4.90;99.90;;;;;;4973741;28;20386;-70
2023/12/06 02:27:53;;;;;;;45.35;28.13;;;4.90;99.90;;;;;;4975357;28;20042;-71
2023/12/06 02:30:18;;;;;;;46.35;29.80;;;4.90;99.90;;;;;;4973823;28;20026;-70
2023/12/06 02:32:44;;;;;;;43.70;28.88;;;4.90;99.90;;;;;;4974999;28;20031;-70
2023/12/06 02:35:21;;;;;;;42.30;28.15;;;4.80;99.90;;;;;;4973863;28;20035;-71
2023/12/06 02:37:49;;;;;;;45.40;29.08;;;4.80;99.90;;;;;;4974293;28;20027;-70
2023/12/06 02:40:15;;;;;;;44.40;29.08;;;4.80;99.90;;;;;;4974624;28;20114;-71
2023/12/06 02:42:41;;;;;;;43.40;28.48;;;4.80;99.90;;;;;;4973440;28;20113;-71
2023/12/06 02:45:07;;;;;;;43.97;26.98;;;4.90;99.90;;;;;;4973956;28;20150;-71
2023/12/06 02:47:33;;;;;;;38.80;25.67;;;4.90;99.90;;;;;;4974576;28;20037;-70
2023/12/06 02:49:59;;;;;;;40.75;27.58;;;4.90;99.90;;;;;;4974786;28;20110;-70
2023/12/06 02:52:24;;;;;;;41.20;27.02;;;5.00;99.90;;;;;;4974774;28;20474;-71
2023/12/06 02:54:50;;;;;;;43.30;28.50;;;4.90;99.90;;;;;;4973264;28;20109;-71
2023/12/06 02:57:15;;;;;;;44.65;28.75;;;4.90;99.90;;;;;;4973559;28;20035;-71
2023/12/06 02:59:41;;;;;;;42.55;26.42;;;4.90;99.90;;;;;;4974454;28;20479;-71
2023/12/06 03:02:07;;;;;;;42.17;27.05;;;4.90;99.90;;;;;;4974112;28;20034;-71
2023/12/06 03:04:32;;;;;;;44.78;28.38;;;5.00;99.90;;;;;;4973212;28;20089;-71
2023/12/06 03:06:58;;;;;;;42.92;27.15;;;5.00;99.90;;;;;;4974625;28;20042;-71
2023/12/06 03:09:23;;;;;;;47.83;30.15;;;5.00;99.90;;;;;;4974721;28;20369;-71
2023/12/06 03:11:49;;;;;;;43.08;27.73;;;5.00;99.90;;;;;;4974178;28;20468;-71
2023/12/06 03:14:14;;;;;;;42.17;28.05;;;4.90;99.90;;;;;;4977888;28;20035;-71
2023/12/06 03:16:40;;;;;;;46.47;28.65;;;4.90;99.90;;;;;;4978145;28;20062;-71
2023/12/06 03:19:06;;;;;;;41.45;28.23;;;4.90;99.90;;;;;;4978234;28;20482;-71
2023/12/06 03:21:31;;;;;;;45.47;28.48;;;4.90;99.90;;;;;;4978503;28;20113;-71
2023/12/06 03:23:57;;;;;;;45.40;28.60;;;4.90;99.90;;;;;;4977904;28;20045;-71
2023/12/06 03:26:23;;;;;;;43.92;27.90;;;4.90;99.90;;;;;;4977965;28;20370;-71
2023/12/06 03:28:48;;;;;;;42.38;27.60;;;4.90;99.90;;;;;;4978049;28;20026;-71
2023/12/06 03:31:14;;;;;;;43.05;27.17;;;5.00;99.90;;;;;;4978213;28;20026;-71
2023/12/06 03:33:40;;;;;;;44.08;27.80;;;5.00;99.90;;;;;;4977553;28;20035;-72
2023/12/06 03:36:09;;;;;;;44.35;28.77;;;5.00;99.90;;;;;;4977830;28;20410;-71
2023/12/06 03:38:34;;;;;;;40.63;26.88;;;5.10;99.90;;;;;;4978083;28;20031;-71
2023/12/06 03:41:01;;;;;;;45.85;28.60;;;5.00;99.90;;;;;;4960710;28;20023;-71
2023/12/06 03:43:27;;;;;;;46.53;28.52;;;5.10;99.90;;;;;;4977234;28;20035;-72
2023/12/06 03:45:53;;;;;;;45.78;28.77;;;5.00;99.90;;;;;;4959903;28;20407;-72
2023/12/06 03:48:19;;;;;;;44.53;29.45;;;5.00;99.90;;;;;;4977847;28;20085;-71
2023/12/06 03:50:44;;;;;;;43.42;27.48;;;5.00;99.90;;;;;;4977620;28;20466;-72
2023/12/06 03:53:10;;;;;;;44.55;29.50;;;5.10;99.90;;;;;;4977595;28;20026;-72
2023/12/06 03:55:36;;;;;;;42.58;27.23;;;5.10;99.90;;;;;;4977769;28;20149;-72
2023/12/06 03:58:02;;;;;;;42.42;27.27;;;5.10;99.90;;;;;;4976460;28;20034;-72
2023/12/06 04:00:28;;;;;;;45.97;29.25;;;5.10;99.90;;;;;;4976107;28;20035;-72
2023/12/06 04:02:54;;;;;;;44.03;27.63;;;5.10;99.90;;;;;;4976125;28;20451;-71
2023/12/06 04:05:19;;;;;;;46.85;29.00;;;5.10;99.90;;;;;;4976198;28;20039;-72
2023/12/06 04:07:45;;;;;;;43.92;27.10;;;5.10;99.90;;;;;;4977402;28;20107;-72
2023/12/06 04:10:11;;;;;;;41.20;27.55;;;5.10;99.90;;;;;;4977268;28;20460;-71
2023/12/06 04:12:37;;;;;;;42.10;27.73;;;5.10;99.90;;;;;;4977340;28;20037;-72
2023/12/06 04:15:03;;;;;;;43.95;28.45;;;5.10;99.90;;;;;;4976503;28;20027;-71
2023/12/06 04:17:29;;;;;;;39.65;25.92;;;5.00;99.90;;;;;;4977366;28;20019;-71
2023/12/06 04:19:55;;;;;;;40.83;26.88;;;5.10;99.90;;;;;;4986593;28;20034;-70
2023/12/06 04:22:21;;;;;;;42.28;25.33;;;5.10;99.90;;;;;;4996600;28;20029;-71
2023/12/06 04:24:46;;;;;;;38.67;26.05;;;5.10;99.90;;;;;;4995274;28;20065;-70
2023/12/06 04:27:12;;;;;;;41.65;25.33;;;5.10;99.90;;;;;;4996078;28;20109;-71
2023/12/06 04:29:37;;;;;;;40.22;25.13;;;5.10;99.90;;;;;;4996422;28;20439;-70
2023/12/06 04:32:03;;;;;;;36.75;24.67;;;5.10;99.90;;;;;;4996528;28;20054;-70
2023/12/06 04:34:45;;;;;;;36.53;24.88;;;5.10;99.90;;;;;;4996529;28;20035;-70
2023/12/06 04:37:11;;;;;;;34.72;24.05;;;5.10;99.90;;;;;;4995884;28;20050;-70
2023/12/06 04:39:36;;;;;;;35.80;22.98;;;5.10;99.90;;;;;;4996437;28;20058;-70
2023/12/06 04:42:02;;;;;;;35.78;24.02;;;5.00;99.90;;;;;;4996082;28;20030;-70
2023/12/06 04:44:28;;;;;;;37.15;24.02;;;5.00;99.90;;;;;;4995630;28;20038;-70
2023/12/06 04:46:54;;;;;;;34.38;22.95;;;5.10;99.90;;;;;;4994964;28;20054;-70
2023/12/06 04:49:19;;;;;;;35.30;24.08;;;5.10;99.90;;;;;;4995683;28;20072;-71
2023/12/06 04:51:45;;;;;;;35.10;23.40;;;5.00;99.90;;;;;;4996483;28;20146;-71
2023/12/06 04:54:11;;;;;;;36.55;25.00;;;5.10;99.90;;;;;;4995813;28;20034;-71
2023/12/06 04:56:36;;;;;;;34.38;23.13;;;5.10;99.90;;;;;;4996115;28;20026;-71
2023/12/06 04:59:02;;;;;;;33.85;22.75;;;5.10;99.90;;;;;;4994493;28;20053;-70
2023/12/06 05:01:28;;;;;;;33.95;23.30;;;5.10;99.90;;;;;;4994458;28;20030;-70
2023/12/06 05:03:53;;;;;;;33.40;23.17;;;5.10;99.90;;;;;;4994681;28;20100;-71
2023/12/06 05:06:19;;;;;;;31.65;21.55;;;5.10;99.90;;;;;;4994577;28;20080;-71
2023/12/06 05:08:44;;;;;;;30.45;21.08;;;5.10;99.90;;;;;;4995841;28;20367;-70
2023/12/06 05:11:10;;;;;;;33.30;22.30;;;5.10;99.90;;;;;;4995798;28;20030;-70
2023/12/06 05:13:35;;;;;;;30.00;21.70;;;5.10;99.90;;;;;;4994529;28;20065;-71
2023/12/06 05:16:01;;;;;;;32.55;22.08;;;5.10;99.90;;;;;;4994446;28;20038;-71
2023/12/06 05:18:27;;;;;;;29.23;20.95;;;5.10;99.90;;;;;;4995616;28;20034;-71
2023/12/06 05:20:52;;;;;;;29.80;21.35;;;5.10;99.90;;;;;;4995373;28;20058;-71
2023/12/06 05:23:18;;;;;;;30.35;21.00;;;5.20;99.90;;;;;;4994164;28;20113;-71
2023/12/06 05:25:45;;;;;;;32.53;20.98;;;5.20;99.90;;;;;;4994964;28;20418;-71
2023/12/06 05:28:10;;;;;;;28.05;20.88;;;5.10;99.90;;;;;;4995475;28;20026;-71
2023/12/06 05:30:36;;;;;;;31.95;21.20;;;5.10;99.90;;;;;;4993943;28;20068;-71
2023/12/06 05:33:02;;;;;;;26.90;20.15;;;5.20;99.90;;;;;;4994808;28;20149;-72
2023/12/06 05:35:27;;;;;;;30.50;21.75;;;5.20;99.90;;;;;;4993755;28;20084;-71
2023/12/06 05:37:53;;;;;;;28.45;20.27;;;5.20;99.90;;;;;;4994142;28;20504;-71
2023/12/06 05:40:20;;;;;;;27.13;20.30;;;5.10;99.90;;;;;;4994065;28;20458;-71
2023/12/06 05:42:46;;;;;;;27.40;19.08;;;5.10;99.90;;;;;;4994105;28;20445;-72
2023/12/06 05:45:12;;;;;;;26.10;18.38;;;5.10;99.90;;;;;;4994200;28;20141;-71
2023/12/06 05:47:38;;;;;;;26.02;19.20;;;5.10;99.90;;;;;;4994795;28;20109;-71
2023/12/06 05:50:04;;;;;;;25.90;18.63;;;5.10;99.90;;;;;;4995093;28;20058;-71
2023/12/06 05:52:30;;;;;;;28.08;18.40;;;5.10;99.90;;;;;;4994523;28;20119;-71
2023/12/06 05:54:56;;;;;;;28.48;18.95;;;5.10;99.90;;;;;;4993667;28;20058;-72
2023/12/06 05:57:22;;;;;;;23.95;17.30;;;5.20;99.90;;;;;;4994767;28;20030;-71
2023/12/06 06:12:30;;;;;;;25.02;16.95;;;5.50;99.90;;;;;;5016603;22;20059;-73
2023/12/06 06:14:55;;;;;;;23.23;17.00;;;5.60;99.90;;;;;;4993060;28;20038;-74
2023/12/06 06:28:25;;;;;;;22.35;17.10;;;5.90;99.90;;;;;;4986576;23;20154;31
2023/12/06 06:30:51;;;;;;;22.20;16.10;;;5.90;99.90;;;;;;4833397;29;20127;-83
2023/12/06 06:33:16;;;;;;;24.52;17.75;;;6.00;99.90;;;;;;4835497;29;20047;-86
2023/12/06 06:35:43;;;;;;;19.77;14.57;;;6.00;99.90;;;;;;4836154;29;20464;-86
2023/12/06 06:38:09;;;;;;;18.15;13.20;;;6.10;99.90;;;;;;4835035;29;20066;-83
2023/12/06 06:40:35;;;;;;;24.95;16.67;;;6.10;99.90;;;;;;4834778;29;20054;-84
2023/12/06 06:43:00;;;;;;;22.45;15.43;;;6.20;99.90;;;;;;4806571;29;20064;-82
2023/12/06 06:45:26;;;;;;;23.08;17.08;;;6.20;99.90;;;;;;4835058;29;20456;-82
2023/12/06 06:47:52;;;;;;;23.58;17.10;;;6.30;99.90;;;;;;4805756;29;20097;-84
2023/12/06 06:50:18;;;;;;;21.35;15.35;;;6.30;99.90;;;;;;4836688;29;20537;-86
2023/12/06 06:52:43;;;;;;;19.13;15.68;;;6.30;99.90;;;;;;4839081;29;20039;-86
2023/12/06 06:55:09;;;;;;;20.20;14.35;;;6.30;99.90;;;;;;4839848;29;20035;-86
2023/12/06 06:57:35;;;;;;;22.27;15.77;;;6.40;99.90;;;;;;4807557;29;20047;-84
2023/12/06 07:00:01;;;;;;;22.90;15.18;;;6.40;99.90;;;;;;4835829;29;20155;-79
2023/12/06 07:05:02;;;;;;;21.20;15.65;;;6.50;99.90;;;;;;4978980;24;20069;-88
2023/12/06 07:07:28;;;;;;;24.17;15.68;;;6.50;99.90;;;;;;4878890;29;20393;-80
2023/12/06 07:09:53;;;;;;;20.38;14.50;;;6.50;99.90;;;;;;4879063;29;20128;-78
2023/12/06 07:12:20;;;;;;;23.00;14.48;;;6.50;99.90;;;;;;4862556;29;20033;-79
2023/12/06 07:14:46;;;;;;;18.25;14.25;;;6.50;99.90;;;;;;4863021;29;20033;-80
2023/12/06 07:17:11;;;;;;;24.25;14.77;;;6.50;99.90;;;;;;4862252;29;20088;-79
2023/12/06 07:19:37;;;;;;;20.33;13.32;;;6.50;99.90;;;;;;4878614;29;20033;-80
2023/12/06 07:22:03;;;;;;;18.13;13.20;;;6.50;99.90;;;;;;4879461;29;20034;-77
2023/12/06 07:24:28;;;;;;;20.50;14.82;;;6.50;99.90;;;;;;4862914;29;20037;-79
2023/12/06 07:26:54;;;;;;;20.58;13.98;;;6.60;99.90;;;;;;4862873;29;20089;-82
2023/12/06 07:29:19;;;;;;;20.65;15.30;;;6.60;99.90;;;;;;4862484;29;20069;-81
2023/12/06 07:31:45;;;;;;;17.67;12.90;;;6.60;99.90;;;;;;4879535;29;20471;-85
2023/12/06 07:34:11;;;;;;;19.38;12.43;;;6.60;99.90;;;;;;4848233;29;20052;-85
2023/12/06 07:36:36;;;;;;;20.95;14.07;;;6.60;99.90;;;;;;4863823;29;20040;-78
2023/12/06 07:39:02;;;;;;;21.25;14.45;;;6.60;99.90;;;;;;4879270;29;20522;-80
2023/12/06 07:41:28;;;;;;;21.85;13.20;;;6.60;99.90;;;;;;4848268;29;20033;-82
2023/12/06 07:43:53;;;;;;;17.35;11.10;;;6.60;99.90;;;;;;4862804;29;20407;-80
2023/12/06 07:46:19;;;;;;;18.90;13.45;;;6.60;99.90;;;;;;4880536;29;20033;-82
2023/12/06 07:48:46;;;;;;;17.77;12.40;;;6.70;99.90;;;;;;4848797;29;20030;-81
2023/12/06 07:51:11;;;;;;;20.70;12.52;;;6.70;99.90;;;;;;4878913;29;20033;-81
2023/12/06 07:53:37;;;;;;;24.00;14.23;;;6.70;99.90;;;;;;4879894;29;20120;-84
2023/12/06 07:56:03;;;;;;;19.48;12.65;;;6.70;99.90;;;;;;4862341;29;20042;-80
2023/12/06 07:58:30;;;;;;;18.83;12.70;;;6.70;99.90;;;;;;4878778;29;20108;-80
2023/12/06 08:00:57;;;;;;;19.85;13.00;;;6.80;99.90;;;;;;4881929;29;20029;-81
2023/12/06 08:03:26;;;;;;;18.80;11.13;;;6.80;99.90;;;;;;4881555;29;20423;-80
2023/12/06 08:05:52;;;;;;;23.00;14.35;;;6.90;99.90;;;;;;4882051;29;20093;-79
2023/12/06 08:08:18;;;;;;;19.65;12.10;;;6.90;99.90;;;;;;4882528;29;20093;-81
2023/12/06 08:10:43;;;;;;;16.25;11.07;;;6.80;99.90;;;;;;4865960;29;20312;-80
2023/12/06 08:13:09;;;;;;;11.40;8.27;;;6.90;99.90;;;;;;4883352;29;20037;-78
2023/12/06 08:15:35;;;;;;;17.67;11.32;;;6.80;99.90;;;;;;4883823;29;20037;-79
2023/12/06 08:18:01;;;;;;;16.77;10.73;;;6.90;99.90;;;;;;4881736;29;20153;-79
2023/12/06 08:20:26;;;;;;;17.52;10.13;;;6.90;99.90;;;;;;4881892;29;20108;-79
2023/12/06 08:22:52;;;;;;;17.75;10.50;;;7.00;99.90;;;;;;4881832;29;20037;-78
2023/12/06 08:25:18;;;;;;;14.50;10.05;;;7.00;99.90;;;;;;4881734;29;20071;-81
2023/12/06 08:27:44;;;;;;;16.67;10.32;;;7.00;99.90;;;;;;4865582;29;20446;-80
2023/12/06 08:30:10;;;;;;;17.10;11.18;;;7.10;99.90;;;;;;4849667;29;20041;-82
2023/12/06 08:32:35;;;;;;;15.40;10.38;;;7.10;99.90;;;;;;4881301;29;20086;-80
2023/12/06 08:35:01;;;;;;;15.98;10.70;;;7.10;99.90;;;;;;4882139;29;20363;-81
2023/12/06 08:37:27;;;;;;;16.83;9.82;;;7.10;99.90;;;;;;4882571;29;20037;-81
2023/12/06 08:39:52;;;;;;;20.30;10.90;;;7.10;99.90;;;;;;4881699;29;20041;-80
2023/12/06 08:42:18;;;;;;;18.33;10.27;;;7.10;99.90;;;;;;4865803;29;20033;-78
2023/12/06 08:44:44;;;;;;;17.33;10.95;;;7.10;99.90;;;;;;4849377;29;20033;-81
2023/12/06 08:47:11;;;;;;;17.38;10.10;;;7.10;99.90;;;;;;4881083;29;20481;-80
2023/12/06 08:49:38;;;;;;;16.30;10.02;;;7.20;99.90;;;;;;4881442;29;20177;-78
2023/12/06 08:52:05;;;;;;;21.42;12.48;;;7.20;99.90;;;;;;4881113;29;20062;-76
2023/12/06 08:54:31;;;;;;;18.63;11.65;;;7.10;99.90;;;;;;4881446;29;20112;-76
2023/12/06 08:56:58;;;;;;;17.77;11.60;;;7.10;99.90;;;;;;4880694;29;20033;-77
2023/12/06 08:59:23;;;;;;;17.50;11.30;;;7.10;99.90;;;;;;4864521;29;20036;-76
2023/12/06 09:01:49;;;;;;;12.82;8.60;;;7.10;99.90;;;;;;4849356;29;20041;-78
2023/12/06 09:04:14;;;;;;;13.57;8.82;;;7.10;99.90;;;;;;4848677;29;20060;-77
2023/12/06 09:06:40;;;;;;;15.32;9.07;;;7.20;99.90;;;;;;4864895;29;20037;-77
2023/12/06 09:09:06;;;;;;;14.68;8.13;;;7.20;99.90;;;;;;4848668;29;20037;-78
2023/12/06 09:11:33;;;;;;;16.67;8.93;;;7.20;99.90;;;;;;4864005;29;20040;-78
2023/12/06 09:13:58;;;;;;;15.60;9.50;;;7.20;99.90;;;;;;4864344;29;20048;-83
2023/12/06 09:16:24;;;;;;;13.68;8.13;;;7.30;99.90;;;;;;4864365;29;20040;-84
2023/12/06 09:18:49;;;;;;;14.82;8.32;;;7.30;99.90;;;;;;4865045;29;20041;-78
2023/12/06 09:21:15;;;;;;;12.90;8.30;;;7.30;99.90;;;;;;4864509;29;20044;-78
2023/12/06 09:23:41;;;;;;;17.20;8.82;;;7.30;99.90;;;;;;4880644;29;20036;-78
2023/12/06 09:26:09;;;;;;;17.23;10.00;;;7.30;99.90;;;;;;4866838;29;20035;-79
2023/12/06 09:28:35;;;;;;;15.48;9.27;;;7.30;99.90;;;;;;4872053;29;20045;-80
2023/12/06 09:31:01;;;;;;;14.63;8.68;;;7.30;99.90;;;;;;4873632;29;20437;-79
2023/12/06 09:33:26;;;;;;;13.85;7.43;;;7.30;99.90;;;;;;4871468;29;20044;-81
2023/12/06 09:35:52;;;;;;;15.25;7.75;;;7.40;99.90;;;;;;4864580;29;20033;-81
2023/12/06 09:38:18;;;;;;;16.98;9.68;;;7.30;99.90;;;;;;4849019;29;20143;-80
2023/12/06 09:40:44;;;;;;;15.02;10.32;;;7.40;99.90;;;;;;4863912;29;20454;-81
2023/12/06 09:43:11;;;;;;;14.00;8.90;;;7.30;99.90;;;;;;4880481;29;20044;-80
2023/12/06 09:45:37;;;;;;;15.25;9.20;;;7.30;99.90;;;;;;4863724;29;20033;-79
2023/12/06 09:48:03;;;;;;;15.48;9.00;;;7.20;99.90;;;;;;4880408;29;20061;-79
2023/12/06 09:50:29;;;;;;;13.25;8.43;;;7.20;99.90;;;;;;4863780;29;20049;-79
2023/12/06 09:52:55;;;;;;;16.80;9.35;;;7.20;99.90;;;;;;4863407;29;20168;-79
2023/12/06 09:55:25;;;;;;;17.05;9.93;;;7.20;99.90;;;;;;4880189;29;20041;-78
2023/12/06 09:57:52;;;;;;;15.63;9.02;;;7.30;99.90;;;;;;4880209;29;20072;-78
2023/12/06 10:00:18;;;;;;;17.92;9.75;;;7.30;99.90;;;;;;4863451;29;20029;-78
2023/12/06 10:02:55;;;;;;;14.88;9.40;;;7.40;99.90;;;;;;4862440;29;20121;-75
2023/12/06 10:05:21;;;;;;;14.10;8.60;;;7.40;99.90;;;;;;4880345;29;20088;-78
2023/12/06 10:07:48;;;;;;;16.67;9.35;;;7.50;99.90;;;;;;4879262;29;20025;-78
2023/12/06 10:10:19;;;;;;;15.88;9.77;;;7.60;99.90;;;;;;4862305;29;20040;-78
2023/12/06 10:12:49;;;;;;;17.15;10.00;;;7.70;99.90;;;;;;4862610;29;20025;-78
2023/12/06 10:15:16;;;;;;;17.08;9.85;;;7.80;99.90;;;;;;4879326;29;20033;-78
2023/12/06 10:17:42;;;;;;;14.65;8.63;;;7.80;99.90;;;;;;4862437;29;20045;-78
2023/12/06 10:20:08;;;;;;;14.00;8.90;;;7.90;99.90;;;;;;4863047;29;20029;-79
2023/12/06 10:22:34;;;;;;;15.18;8.70;;;8.00;99.90;;;;;;4878838;29;20044;-78
2023/12/06 10:25:00;;;;;;;17.48;9.23;;;7.90;99.90;;;;;;4879341;29;20043;-77
2023/12/06 10:27:27;;;;;;;13.82;9.23;;;7.90;99.90;;;;;;4879334;29;20029;-78
2023/12/06 10:29:53;;;;;;;14.80;9.30;;;8.00;99.90;;;;;;4879455;29;20029;-77
2023/12/06 10:32:19;;;;;;;16.10;9.07;;;8.00;99.90;;;;;;4862882;29;20058;-78
2023/12/06 10:34:46;;;;;;;17.13;9.45;;;8.10;99.90;;;;;;4879170;29;20128;-78
2023/12/06 10:37:15;;;;;;;15.63;9.52;;;8.20;99.90;;;;;;4878864;29;20045;-77
2023/12/06 10:39:43;;;;;;;21.27;10.90;;;8.20;99.90;;;;;;4880281;29;20041;-77
2023/12/06 10:42:14;;;;;;;17.70;9.25;;;8.20;99.90;;;;;;4879015;29;20184;-78
2023/12/06 10:44:40;;;;;;;15.85;9.77;;;8.20;99.90;;;;;;4879209;29;20142;-77
2023/12/06 10:47:07;;;;;;;17.25;9.77;;;8.30;99.90;;;;;;4862440;29;20146;-78
2023/12/06 10:49:34;;;;;;;13.98;8.60;;;8.30;99.90;;;;;;4862651;29;20038;-77
2023/12/06 10:52:01;;;;;;;17.02;9.10;;;8.40;99.90;;;;;;4862549;29;20055;-77
2023/12/06 10:54:27;;;;;;;14.57;8.02;;;8.40;99.90;;;;;;4863070;29;20481;-77
2023/12/06 10:56:53;;;;;;;13.98;9.23;;;8.50;99.90;;;;;;4879283;29;20045;-77
2023/12/06 10:59:20;;;;;;;14.60;8.32;;;8.50;99.90;;;;;;4880037;29;20151;-77
2023/12/06 11:01:47;;;;;;;15.30;8.52;;;8.50;99.90;;;;;;4878438;29;20482;-77
2023/12/06 11:04:14;;;;;;;14.02;7.80;;;8.50;99.90;;;;;;4878418;29;20085;-77
2023/12/06 11:07:10;;;;;;;14.55;8.02;;;8.60;99.90;;;;;;4878355;29;20025;-77
2023/12/06 11:10:09;;;;;;;15.07;8.63;;;8.60;99.90;;;;;;4878592;29;20021;-77
2023/12/06 11:13:12;;;;;;;15.85;8.63;;;8.60;99.90;;;;;;4878374;29;20030;-77
2023/12/06 11:16:02;;;;;;;11.68;7.45;;;8.70;99.90;;;;;;4802306;29;20152;-78
2023/12/06 11:18:41;;;;;;;11.52;8.13;;;8.60;99.90;;;;;;4874465;29;20037;-77
2023/12/06 11:21:06;;;;;;;10.70;7.28;;;8.50;99.90;;;;;;4878259;29;20032;-77
2023/12/06 11:23:32;;;;;;;9.48;6.82;;;8.50;99.90;;;;;;4831430;29;20029;-77
2023/12/06 11:25:58;;;;;;;10.52;6.30;;;8.40;99.90;;;;;;4878176;29;20374;-77
2023/12/06 11:28:23;;;;;;;11.85;6.65;;;8.40;99.90;;;;;;4861742;29;20033;-77
2023/12/06 11:30:51;;;;;;;11.52;6.63;;;8.40;99.90;;;;;;4877959;29;20116;-77
2023/12/06 11:33:17;;;;;;;12.98;6.57;;;8.40;99.90;;;;;;4878961;29;20505;-78
2023/12/06 11:35:44;;;;;;;10.38;6.13;;;8.40;99.90;;;;;;4881743;29;20478;-77
2023/12/06 11:38:09;;;;;;;9.73;6.53;;;8.40;99.90;;;;;;4881637;29;20025;-77
2023/12/06 11:40:35;;;;;;;10.70;6.65;;;8.50;99.90;;;;;;4881381;29;20461;-77
2023/12/06 11:43:02;;;;;;;8.93;5.85;;;8.50;99.90;;;;;;4881814;29;20081;-77
2023/12/06 11:45:29;;;;;;;10.50;6.35;;;8.40;99.90;;;;;;4881603;29;20092;-77
2023/12/06 11:47:58;;;;;;;11.82;6.97;;;8.40;99.90;;;;;;4881195;29;20474;-77
2023/12/06 11:50:24;;;;;;;12.70;7.03;;;8.30;99.90;;;;;;4881507;29;20033;-77
2023/12/06 11:52:53;;;;;;;10.98;6.50;;;8.30;99.90;;;;;;4882328;29;20036;-78
2023/12/06 11:55:19;;;;;;;10.15;6.35;;;8.20;99.90;;;;;;4898468;29;20029;-79
2023/12/06 11:58:07;;;;;;;10.45;6.78;;;8.20;99.90;;;;;;4891672;29;20482;-81
2023/12/06 12:00:34;;;;;;;13.43;8.07;;;8.30;99.90;;;;;;4872200;29;20033;-78
2023/12/06 12:03:02;;;;;;;14.15;6.18;;;8.30;99.90;;;;;;4881954;29;20037;-77
2023/12/06 12:05:29;;;;;;;10.23;5.68;;;8.30;99.90;;;;;;4881603;29;20486;-77
2023/12/06 12:07:56;;;;;;;10.68;6.63;;;8.40;99.90;;;;;;4864107;29;20033;-77
2023/12/06 12:10:21;;;;;;;14.20;7.38;;;8.50;99.90;;;;;;4881508;29;20045;-77
2023/12/06 12:12:50;;;;;;;11.25;6.65;;;8.70;99.90;;;;;;4864299;29;20036;-78
2023/12/06 12:15:17;;;;;;;10.00;6.75;;;8.70;99.90;;;;;;4880906;29;20048;-77
2023/12/06 12:17:44;;;;;;;11.13;7.30;;;8.80;99.90;;;;;;4881076;29;20037;-75
2023/12/06 12:20:13;;;;;;;12.73;6.40;;;8.90;99.90;;;;;;4881395;29;20124;-76
2023/12/06 12:22:50;;;;;;;12.80;7.07;;;8.90;99.90;;;;;;4881218;29;20056;-76
2023/12/06 12:25:17;;;;;;;11.75;6.88;;;8.90;99.90;;;;;;4881195;29;20482;-76
2023/12/06 12:27:46;;;;;;;10.88;7.00;;;8.90;99.90;;;;;;4864250;29;20334;-76
2023/12/06 12:30:13;;;;;;;13.77;7.53;;;8.90;99.90;;;;;;4880987;29;20033;-76
2023/12/06 12:32:52;;;;;;;11.57;7.38;;;8.90;99.90;;;;;;4881542;29;20029;-76
2023/12/06 12:35:18;;;;;;;15.98;8.45;;;9.00;99.90;;;;;;4864451;29;20068;-76
2023/12/06 12:37:45;;;;;;;11.00;7.07;;;9.00;99.90;;;;;;4863853;29;20470;-76
2023/12/06 12:40:12;;;;;;;15.50;7.57;;;9.00;99.90;;;;;;4863572;29;20124;-77
2023/12/06 12:42:41;;;;;;;13.48;7.75;;;8.90;99.90;;;;;;4880593;29;20065;-75
2023/12/06 12:45:09;;;;;;;13.50;7.30;;;8.80;99.90;;;;;;4863208;29;20037;-76
2023/12/06 12:47:35;;;;;;;14.32;7.63;;;8.80;99.90;;;;;;4880276;29;20120;-78
2023/12/06 12:50:01;;;;;;;13.00;7.60;;;8.70;99.90;;;;;;4880508;29;20044;-79
2023/12/06 12:52:32;;;;;;;13.98;8.20;;;8.70;99.90;;;;;;4880222;29;20033;-78
2023/12/06 12:55:00;;;;;;;12.98;7.75;;;8.60;99.90;;;;;;4863656;29;20386;-79
2023/12/06 12:57:39;;;;;;;13.60;7.65;;;8.60;99.90;;;;;;4880287;29;20072;-79
2023/12/06 13:00:05;;;;;;;14.50;7.47;;;8.50;99.90;;;;;;4863324;29;20417;-78
2023/12/06 13:02:33;;;;;;;11.68;7.38;;;8.50;99.90;;;;;;4863044;29;20445;-79
2023/12/06 13:04:58;;;;;;;13.77;8.10;;;8.50;99.90;;;;;;4862610;29;20108;-80